createdAt,value
2022-08-17T00:01:52.649Z,9.75
2022-08-17T00:04:44.862Z,10.18
2022-08-17T00:07:38.317Z,9.40
2022-08-17T00:10:27.778Z,9.30
2022-08-17T00:13:32.887Z,9.35
2022-08-17T00:16:56.273Z,9.65
2022-08-17T00:19:43.519Z,9.20
2022-08-17T00:22:36.574Z,8.82
2022-08-17T00:25:26.377Z,9.75
2022-08-17T00:28:17.309Z,8.85
2022-08-17T00:31:09.298Z,9.30
2022-08-17T00:33:58.785Z,9.45
2022-08-17T00:36:48.320Z,9.30
2022-08-17T00:39:37.866Z,8.38
2022-08-17T00:42:30.986Z,9.02
2022-08-17T00:45:21.757Z,8.48
2022-08-17T00:48:27.185Z,8.60
2022-08-17T00:51:54.583Z,8.32
2022-08-17T00:54:48.337Z,8.98
2022-08-17T00:57:44.075Z,8.40
2022-08-17T01:00:43.330Z,8.25
2022-08-17T01:03:33.138Z,8.38
2022-08-17T01:06:25.192Z,8.55
2022-08-17T01:09:15.838Z,8.50
2022-08-17T01:12:10.019Z,9.27
2022-08-17T01:14:59.927Z,9.55
2022-08-17T01:17:49.784Z,10.07
2022-08-17T01:20:51.379Z,9.57
2022-08-17T01:23:43.177Z,9.40
2022-08-17T01:26:35.682Z,9.05
2022-08-17T01:29:26.397Z,9.48
2022-08-17T01:32:16.057Z,9.40
2022-08-17T01:35:07.742Z,9.13
2022-08-17T01:37:57.496Z,8.82
2022-08-17T01:40:57.533Z,9.20
2022-08-17T01:43:55.818Z,8.88
2022-08-17T01:46:45.678Z,8.43
2022-08-17T01:49:38.137Z,9.00
2022-08-17T01:52:27.619Z,8.65
2022-08-17T01:55:25.860Z,8.32
2022-08-17T01:58:17.102Z,8.68
2022-08-17T02:01:08.236Z,8.50
2022-08-17T02:04:00.544Z,8.20
2022-08-17T02:06:53.336Z,8.52
2022-08-17T02:09:44.957Z,8.43
2022-08-17T02:12:42.484Z,8.25
2022-08-17T02:15:33.102Z,7.93
2022-08-17T02:18:22.706Z,8.52
2022-08-17T02:21:12.805Z,8.00
2022-08-17T02:24:03.577Z,7.82
2022-08-17T02:26:53.341Z,8.05
2022-08-17T02:29:42.737Z,8.43
2022-08-17T02:32:32.220Z,7.38
2022-08-17T02:35:25.417Z,7.78
2022-08-17T02:38:14.978Z,7.97
2022-08-17T02:41:05.617Z,7.50
2022-08-17T02:43:55.016Z,7.68
2022-08-17T02:46:44.362Z,7.28
2022-08-17T02:49:33.803Z,7.72
2022-08-17T02:52:43.666Z,7.53
2022-08-17T02:55:41.299Z,8.07
2022-08-17T02:58:35.200Z,7.28
2022-08-17T03:01:25.549Z,7.60
2022-08-17T03:04:15.218Z,7.75
2022-08-17T03:07:06.177Z,7.97
2022-08-17T03:09:56.552Z,7.00
2022-08-17T03:12:47.306Z,7.05
2022-08-17T03:15:37.218Z,7.25
2022-08-17T03:18:30.127Z,7.18
2022-08-17T03:21:19.511Z,7.43
2022-08-17T03:24:10.097Z,7.13
2022-08-17T03:27:00.220Z,7.83
2022-08-17T03:29:49.896Z,7.22
2022-08-17T03:32:47.197Z,7.20
2022-08-17T03:35:38.866Z,7.32
2022-08-17T03:38:28.499Z,7.50
2022-08-17T03:41:18.083Z,7.43
2022-08-17T03:44:07.967Z,7.80
2022-08-17T03:47:15.457Z,6.93
2022-08-17T03:50:20.660Z,6.72
2022-08-17T03:53:36.180Z,7.15
2022-08-17T03:56:43.817Z,7.50
2022-08-17T03:59:33.381Z,6.05
2022-08-17T04:02:28.257Z,5.47
2022-08-17T04:05:17.658Z,5.85
2022-08-17T04:08:07.458Z,5.70
2022-08-17T04:10:58.385Z,5.30
2022-08-17T04:13:48.104Z,5.80
2022-08-17T04:16:38.306Z,5.88
2022-08-17T04:19:27.984Z,5.75
2022-08-17T04:22:30.482Z,5.80
2022-08-17T04:25:23.444Z,5.43
2022-08-17T04:28:15.530Z,5.78
2022-08-17T04:31:06.473Z,5.38
2022-08-17T04:33:56.866Z,6.32
2022-08-17T04:36:50.158Z,5.72
2022-08-17T04:39:40.017Z,5.65
2022-08-17T04:42:29.539Z,5.65
2022-08-17T04:45:19.186Z,5.53
2022-08-17T04:48:09.846Z,5.55
2022-08-17T04:51:00.878Z,5.45
2022-08-17T04:53:55.318Z,5.90
2022-08-17T04:56:45.664Z,5.32
2022-08-17T04:59:35.338Z,5.15
2022-08-17T05:02:25.224Z,5.10
2022-08-17T05:05:38.024Z,5.32
2022-08-17T05:08:27.928Z,5.40
2022-08-17T05:11:17.527Z,5.10
2022-08-17T05:14:07.756Z,5.63
2022-08-17T05:16:57.865Z,5.18
2022-08-17T05:19:51.944Z,5.20
2022-08-17T05:22:57.925Z,5.00
2022-08-17T05:25:50.461Z,5.22
2022-08-17T05:28:40.263Z,5.68
2022-08-17T05:31:31.198Z,5.43
2022-08-17T05:34:21.174Z,5.20
2022-08-17T05:37:10.584Z,5.50
2022-08-17T05:40:00.221Z,5.32
2022-08-17T05:42:51.367Z,5.53
2022-08-17T05:45:56.704Z,5.90
2022-08-17T05:48:49.505Z,5.60
2022-08-17T05:51:58.082Z,5.50
2022-08-17T05:54:50.386Z,5.05
2022-08-17T05:57:47.659Z,5.20
2022-08-17T06:00:54.607Z,5.57
2022-08-17T06:04:02.084Z,5.10
2022-08-17T06:07:05.921Z,5.38
2022-08-17T06:10:14.226Z,4.72
2022-08-17T06:13:18.738Z,5.40
2022-08-17T06:16:28.210Z,5.15
2022-08-17T06:19:38.977Z,5.60
2022-08-17T06:22:34.579Z,5.38
2022-08-17T06:25:48.674Z,5.05
2022-08-17T06:28:45.199Z,5.00
2022-08-17T06:31:39.422Z,5.53
2022-08-17T06:34:28.746Z,5.55
2022-08-17T06:37:27.047Z,5.50
2022-08-17T06:40:38.221Z,5.40
2022-08-17T06:43:43.979Z,5.57
2022-08-17T06:46:49.539Z,6.35
2022-08-17T06:50:04.477Z,5.70
2022-08-17T06:53:04.858Z,5.88
2022-08-17T06:56:09.941Z,5.70
2022-08-17T06:59:01.650Z,5.78
2022-08-17T07:01:53.173Z,5.68
2022-08-17T07:04:43.939Z,5.93
2022-08-17T07:07:54.689Z,5.85
2022-08-17T07:10:56.058Z,5.68
2022-08-17T07:13:52.227Z,5.90
2022-08-17T07:16:47.805Z,5.63
2022-08-17T07:19:42.017Z,5.82
2022-08-17T07:22:55.244Z,5.93
2022-08-17T07:25:50.618Z,5.63
2022-08-17T07:28:40.618Z,5.80
2022-08-17T07:31:34.492Z,6.05
2022-08-17T07:34:23.791Z,6.10
2022-08-17T07:37:21.185Z,6.20
2022-08-17T07:40:21.236Z,6.13
2022-08-17T07:43:22.328Z,6.78
2022-08-17T07:46:31.459Z,6.00
2022-08-17T07:49:39.044Z,5.88
2022-08-17T07:52:51.166Z,6.28
2022-08-17T07:55:42.848Z,5.80
2022-08-17T07:58:32.458Z,6.07
2022-08-17T08:01:22.282Z,6.53
2022-08-17T08:08:04.565Z,5.97
2022-08-17T08:11:16.285Z,6.55
2022-08-17T08:14:28.650Z,6.65
2022-08-17T08:17:25.980Z,7.28
2022-08-17T08:20:42.481Z,6.45
2022-08-17T08:23:38.004Z,6.63
2022-08-17T08:26:48.139Z,6.45
2022-08-17T08:29:53.900Z,6.93
2022-08-17T08:32:57.777Z,6.82
2022-08-17T08:37:15.863Z,6.68
2022-08-17T08:40:12.768Z,6.03
2022-08-17T08:43:42.885Z,6.57
2022-08-17T08:47:04.067Z,6.72
2022-08-17T08:50:30.144Z,7.03
2022-08-17T08:53:43.551Z,7.10
2022-08-17T08:56:59.180Z,7.15
2022-08-17T09:00:18.412Z,7.28
2022-08-17T09:03:42.746Z,7.40
2022-08-17T09:06:50.195Z,7.38
2022-08-17T09:09:59.515Z,6.43
2022-08-17T09:12:58.018Z,7.13
2022-08-17T09:15:53.338Z,7.20
2022-08-17T09:19:03.543Z,7.00
2022-08-17T09:21:57.279Z,6.97
2022-08-17T09:24:55.698Z,7.72
2022-08-17T09:28:11.258Z,7.07
2022-08-17T09:31:07.600Z,7.45
2022-08-17T09:34:01.266Z,7.75
2022-08-17T09:37:05.679Z,7.32
2022-08-17T09:40:10.690Z,7.47
2022-08-17T09:43:09.739Z,8.18
2022-08-17T09:46:42.102Z,7.18
2022-08-17T09:49:58.538Z,7.15
2022-08-17T09:52:48.004Z,7.78
2022-08-17T09:56:04.418Z,7.47
2022-08-17T09:59:12.640Z,7.93
2022-08-17T10:02:23.138Z,7.22
2022-08-17T10:05:24.618Z,7.80
2022-08-17T10:08:32.318Z,7.93
2022-08-17T10:11:52.150Z,8.00
2022-08-17T10:15:09.578Z,7.28
2022-08-17T10:18:30.387Z,7.72
2022-08-17T10:21:41.143Z,8.02
2022-08-17T10:25:21.761Z,8.38
2022-08-17T10:28:20.298Z,7.80
2022-08-17T10:34:45.499Z,7.70
2022-08-17T10:37:52.808Z,8.50
2022-08-17T10:40:57.059Z,7.93
2022-08-17T10:44:36.691Z,8.38
2022-08-17T10:47:16.618Z,7.93
2022-08-17T10:50:44.377Z,8.23
2022-08-17T10:53:33.672Z,8.02
2022-08-17T10:56:24.858Z,9.15
2022-08-17T10:59:40.217Z,8.40
2022-08-17T11:02:51.147Z,8.68
2022-08-17T11:05:57.218Z,8.55
2022-08-17T11:08:46.623Z,8.10
2022-08-17T11:11:52.969Z,8.70
2022-08-17T11:15:11.017Z,8.32
2022-08-17T11:18:15.297Z,8.70
2022-08-17T11:21:24.296Z,9.35
2022-08-17T11:24:34.557Z,9.57
2022-08-17T11:27:34.396Z,9.35
2022-08-17T11:30:46.521Z,9.00
2022-08-17T11:33:38.300Z,9.55
2022-08-17T11:36:34.259Z,10.73
2022-08-17T11:40:06.126Z,10.00
2022-08-17T11:43:01.425Z,9.95
2022-08-17T11:46:21.262Z,11.20
2022-08-17T11:49:38.576Z,10.70
2022-08-17T11:52:46.967Z,10.52
2022-08-17T11:55:40.714Z,11.38
2022-08-17T11:58:32.860Z,11.52
2022-08-17T12:01:27.697Z,11.15
2022-08-17T12:04:24.879Z,11.40
2022-08-17T12:07:22.384Z,11.25
2022-08-17T12:10:13.336Z,10.85
2022-08-17T12:13:16.878Z,11.93
2022-08-17T12:16:08.217Z,10.98
2022-08-17T12:19:03.518Z,11.40
2022-08-17T12:22:24.543Z,11.57
2022-08-17T12:25:33.982Z,11.55
2022-08-17T12:28:28.997Z,12.00
2022-08-17T12:31:26.796Z,11.95
2022-08-17T12:34:23.177Z,10.98
2022-08-17T12:37:16.259Z,11.35
2022-08-17T12:40:28.164Z,11.20
2022-08-17T12:43:24.376Z,13.07
2022-08-17T12:46:19.023Z,12.00
2022-08-17T12:49:44.841Z,11.15
2022-08-17T12:52:38.821Z,12.27
2022-08-17T12:55:32.620Z,12.18
2022-08-17T12:58:30.648Z,11.38
2022-08-17T13:01:20.379Z,12.02
2022-08-17T13:04:15.618Z,12.30
2022-08-17T13:07:06.338Z,12.40
2022-08-17T13:09:56.392Z,12.25
2022-08-17T13:12:45.583Z,12.82
2022-08-17T13:15:58.101Z,12.18
2022-08-17T13:18:55.436Z,12.32
2022-08-17T13:21:51.550Z,12.20
2022-08-17T13:24:55.662Z,12.43
2022-08-17T13:27:46.661Z,12.13
2022-08-17T13:30:36.138Z,12.15
2022-08-17T13:33:44.723Z,12.93
2022-08-17T13:36:35.023Z,12.15
2022-08-17T13:39:26.849Z,12.88
2022-08-17T13:42:53.004Z,13.48
2022-08-17T13:45:51.540Z,12.52
2022-08-17T13:48:41.537Z,13.50
2022-08-17T13:51:46.817Z,12.40
2022-08-17T13:54:39.177Z,12.77
2022-08-17T13:57:28.896Z,13.02
2022-08-17T14:00:31.921Z,11.73
2022-08-17T14:03:22.128Z,13.30
2022-08-17T14:06:11.457Z,12.38
2022-08-17T14:09:11.887Z,13.88
2022-08-17T14:12:03.221Z,13.20
2022-08-17T14:14:53.501Z,12.73
2022-08-17T14:17:43.319Z,12.23
2022-08-17T14:20:33.057Z,13.50
2022-08-17T14:23:22.497Z,13.25
2022-08-17T14:26:12.138Z,12.90
2022-08-17T14:29:01.750Z,13.25
2022-08-17T14:31:54.136Z,12.23
2022-08-17T14:34:45.314Z,12.50
2022-08-17T14:37:35.659Z,12.50
2022-08-17T14:40:26.731Z,12.85
2022-08-17T14:43:16.900Z,13.30
2022-08-17T14:46:06.383Z,12.38
2022-08-17T14:48:57.523Z,12.20
2022-08-17T14:51:48.710Z,12.55
2022-08-17T14:54:40.214Z,13.27
2022-08-17T14:57:34.445Z,13.27
2022-08-17T15:00:24.811Z,12.68
2022-08-17T15:03:15.462Z,12.25
2022-08-17T15:06:06.545Z,12.00
2022-08-17T15:08:55.860Z,12.57
2022-08-17T15:11:45.578Z,12.68
2022-08-17T15:14:36.708Z,11.60
2022-08-17T15:17:25.983Z,11.77
2022-08-17T15:20:35.373Z,12.25
2022-08-17T15:23:28.858Z,12.10
2022-08-17T15:26:20.669Z,11.77
2022-08-17T15:29:12.417Z,12.55
2022-08-17T15:32:02.954Z,12.75
2022-08-17T15:34:58.000Z,12.13
2022-08-17T15:37:47.938Z,12.90
2022-08-17T15:40:39.897Z,12.23
2022-08-17T15:43:34.979Z,12.55
2022-08-17T15:46:26.686Z,12.25
2022-08-17T15:49:15.918Z,12.17
2022-08-17T15:52:18.090Z,12.00
2022-08-17T15:55:17.217Z,11.50
2022-08-17T15:58:10.378Z,12.35
2022-08-17T16:01:18.352Z,11.57
2022-08-17T16:04:26.855Z,11.85
2022-08-17T16:07:21.867Z,12.38
2022-08-17T16:10:18.802Z,11.88
2022-08-17T16:13:17.554Z,12.02
2022-08-17T16:16:08.178Z,11.75
2022-08-17T16:18:59.115Z,12.20
2022-08-17T16:21:49.338Z,11.90
2022-08-17T16:24:45.949Z,11.93
2022-08-17T16:27:47.913Z,11.85
2022-08-17T16:30:38.642Z,12.35
2022-08-17T16:33:27.979Z,11.90
2022-08-17T16:36:17.604Z,11.88
2022-08-17T16:39:07.037Z,11.98
2022-08-17T16:41:57.558Z,11.57
2022-08-17T16:44:46.849Z,11.77
2022-08-17T16:47:36.145Z,12.02
2022-08-17T16:50:25.790Z,11.90
2022-08-17T16:53:19.997Z,11.70
2022-08-17T16:56:09.267Z,11.73
2022-08-17T16:58:58.618Z,12.30
2022-08-17T17:02:10.987Z,12.23
2022-08-17T17:05:25.660Z,12.23
2022-08-17T17:08:32.395Z,11.18
2022-08-17T17:11:41.538Z,11.75
2022-08-17T17:14:37.964Z,12.10
2022-08-17T17:17:33.468Z,12.15
2022-08-17T17:20:39.103Z,11.38
2022-08-17T17:23:49.658Z,11.75
2022-08-17T17:26:51.918Z,11.68
2022-08-17T17:30:03.199Z,11.75
2022-08-17T17:33:00.158Z,11.98
2022-08-17T17:36:20.950Z,12.05
2022-08-17T17:39:50.564Z,12.05
2022-08-17T17:42:45.445Z,12.30
2022-08-17T17:45:44.978Z,12.00
2022-08-17T17:48:35.037Z,11.50
2022-08-17T17:52:06.719Z,12.00
2022-08-17T17:55:20.305Z,11.63
2022-08-17T17:58:37.092Z,11.70
2022-08-17T18:01:53.670Z,11.75
2022-08-17T18:05:01.926Z,11.63
2022-08-17T18:08:21.892Z,11.55
2022-08-17T18:11:38.091Z,11.02
2022-08-17T18:14:57.010Z,11.52
2022-08-17T18:18:15.469Z,11.93
2022-08-17T18:21:09.103Z,11.52
2022-08-17T18:24:01.037Z,11.90
2022-08-17T18:26:57.958Z,12.23
2022-08-17T18:29:49.364Z,11.45
2022-08-17T18:32:45.578Z,11.32
2022-08-17T18:35:36.224Z,12.13
2022-08-17T18:38:34.817Z,11.40
2022-08-17T18:41:32.248Z,11.85
2022-08-17T18:44:42.806Z,11.57
2022-08-17T18:47:33.065Z,11.25
2022-08-17T18:50:40.454Z,10.45
2022-08-17T18:53:34.597Z,12.40
2022-08-17T18:56:36.474Z,11.23
2022-08-17T18:59:48.082Z,11.23
2022-08-17T19:02:51.913Z,11.25
2022-08-17T19:05:44.219Z,11.15
2022-08-17T19:08:35.859Z,11.13
2022-08-17T19:11:31.656Z,12.00
2022-08-17T19:14:22.608Z,11.02
2022-08-17T19:17:22.083Z,11.00
2022-08-17T19:20:23.703Z,11.38
2022-08-17T19:23:17.763Z,11.00
2022-08-17T19:26:55.345Z,10.65
2022-08-17T19:29:45.976Z,11.27
2022-08-17T19:32:36.720Z,10.93
2022-08-17T19:35:35.590Z,11.32
2022-08-17T19:38:48.364Z,10.80
2022-08-17T19:41:46.910Z,11.05
2022-08-17T19:44:55.388Z,11.00
2022-08-17T19:48:01.661Z,11.20
2022-08-17T19:51:03.073Z,11.48
2022-08-17T19:54:10.768Z,11.10
2022-08-17T19:57:03.213Z,10.88
2022-08-17T20:03:16.399Z,11.02
2022-08-17T20:06:13.807Z,11.30
2022-08-17T20:09:15.337Z,11.75
2022-08-17T20:12:37.213Z,12.57
2022-08-17T20:15:30.687Z,11.35
2022-08-17T20:18:47.850Z,11.38
2022-08-17T20:24:52.099Z,10.73
2022-08-17T20:28:05.594Z,11.30
2022-08-17T20:30:55.836Z,10.70
2022-08-17T20:33:46.699Z,11.25
2022-08-17T20:36:37.934Z,10.85
2022-08-17T20:39:40.486Z,10.77
2022-08-17T20:42:32.530Z,11.02
2022-08-17T20:45:25.619Z,10.98
2022-08-17T20:48:36.851Z,11.00
2022-08-17T20:52:10.097Z,10.35
2022-08-17T20:54:59.496Z,10.57
2022-08-17T20:57:50.110Z,11.13
2022-08-17T21:00:50.902Z,10.02
2022-08-17T21:03:50.958Z,10.20
2022-08-17T21:07:19.294Z,10.88
2022-08-17T21:10:20.449Z,10.93
2022-08-17T21:13:15.385Z,10.63
2022-08-17T21:16:13.983Z,10.55
2022-08-17T21:19:31.199Z,10.75
2022-08-17T21:22:32.012Z,10.60
2022-08-17T21:25:33.475Z,10.65
2022-08-17T21:29:00.379Z,10.73
2022-08-17T21:32:14.730Z,10.45
2022-08-17T21:35:08.397Z,11.32
2022-08-17T21:38:03.933Z,10.98
2022-08-17T21:40:54.589Z,10.57
2022-08-17T21:43:50.939Z,10.63
2022-08-17T21:46:46.707Z,10.82
2022-08-17T21:49:38.006Z,9.90
2022-08-17T21:52:28.983Z,10.73
2022-08-17T21:55:31.168Z,10.85
2022-08-17T21:58:41.050Z,10.57
2022-08-17T22:01:35.700Z,10.15
2022-08-17T22:04:35.381Z,10.60
2022-08-17T22:07:36.761Z,10.32
2022-08-17T22:10:43.798Z,10.85
2022-08-17T22:13:33.942Z,11.30
2022-08-17T22:16:28.455Z,10.43
2022-08-17T22:19:22.120Z,10.48
2022-08-17T22:22:32.843Z,10.77
2022-08-17T22:25:24.815Z,10.90
2022-08-17T22:28:38.911Z,9.65
2022-08-17T22:31:33.923Z,10.50
2022-08-17T22:34:26.702Z,10.50
2022-08-17T22:37:30.902Z,10.35
2022-08-17T22:40:33.041Z,10.80
2022-08-17T22:43:26.717Z,10.02
2022-08-17T22:46:25.362Z,10.18
2022-08-17T22:49:58.778Z,10.68
2022-08-17T22:53:19.870Z,10.57
2022-08-17T22:56:36.983Z,10.75
2022-08-17T22:59:56.886Z,10.63
2022-08-17T23:03:08.005Z,9.85
2022-08-17T23:06:07.837Z,10.48
2022-08-17T23:08:59.384Z,10.27
2022-08-17T23:11:53.983Z,10.38
2022-08-17T23:14:46.392Z,9.88
2022-08-17T23:17:37.538Z,10.10
2022-08-17T23:20:29.686Z,10.10
2022-08-17T23:23:23.565Z,11.20
2022-08-17T23:26:13.504Z,10.25
2022-08-17T23:29:05.464Z,10.15
2022-08-17T23:31:55.732Z,10.18
2022-08-17T23:34:49.084Z,9.65
2022-08-17T23:37:38.652Z,10.60
2022-08-17T23:40:29.833Z,10.48
2022-08-17T23:43:25.592Z,9.90
2022-08-17T23:46:18.642Z,9.90
2022-08-17T23:49:08.222Z,9.65
2022-08-17T23:51:58.723Z,10.13
2022-08-17T23:54:49.444Z,10.57
2022-08-17T23:57:39.355Z,10.75
